createdAt,value
2019-03-23T00:01:26.970Z,30.23
2019-03-23T00:03:57.742Z,29.27
2019-03-23T00:06:30.979Z,28.00
2019-03-23T00:08:59.214Z,29.40
2019-03-23T00:11:29.928Z,27.55
2019-03-23T00:13:59.865Z,28.17
2019-03-23T00:16:29.711Z,29.07
2019-03-23T00:19:00.504Z,27.83
2019-03-23T00:21:30.542Z,28.43
2019-03-23T00:24:01.320Z,28.50
2019-03-23T00:26:32.182Z,29.77
2019-03-23T00:29:03.069Z,27.80
2019-03-23T00:31:33.953Z,27.87
2019-03-23T00:34:03.879Z,28.33
2019-03-23T00:36:41.365Z,28.40
2019-03-23T00:39:08.218Z,28.87
2019-03-23T00:41:39.225Z,29.13
2019-03-23T00:44:10.077Z,28.43
2019-03-23T00:46:40.040Z,28.63
2019-03-23T00:49:10.808Z,28.60
2019-03-23T00:51:41.717Z,28.10
2019-03-23T00:54:12.576Z,30.00
2019-03-23T00:56:43.443Z,29.70
2019-03-23T00:59:14.302Z,29.27
2019-03-23T01:01:45.162Z,29.77
2019-03-23T01:04:16.035Z,30.40
2019-03-23T01:06:52.131Z,29.33
2019-03-23T01:09:18.354Z,31.10
2019-03-23T01:11:49.235Z,30.73
2019-03-23T01:14:20.087Z,30.77
2019-03-23T01:16:50.027Z,29.60
2019-03-23T01:19:20.086Z,30.03
2019-03-23T01:21:49.886Z,30.37
2019-03-23T01:24:19.903Z,31.13
2019-03-23T01:26:49.769Z,28.60
2019-03-23T01:29:20.859Z,32.23
2019-03-23T01:31:51.743Z,30.53
2019-03-23T01:34:22.571Z,31.23
2019-03-23T01:37:02.549Z,32.73
2019-03-23T01:39:25.950Z,30.68
2019-03-23T01:41:56.868Z,31.40
2019-03-23T01:44:27.721Z,31.57
2019-03-23T01:46:58.555Z,31.63
2019-03-23T01:49:29.439Z,29.80
2019-03-23T01:51:59.479Z,30.80
2019-03-23T01:54:30.234Z,28.83
2019-03-23T01:57:01.107Z,29.63
2019-03-23T01:59:31.974Z,30.87
2019-03-23T02:02:01.951Z,31.30
2019-03-23T02:04:32.730Z,31.03
2019-03-23T02:07:13.397Z,35.03
2019-03-23T02:09:36.084Z,33.73
2019-03-23T02:12:06.987Z,33.37
2019-03-23T02:14:37.843Z,33.80
2019-03-23T02:17:07.832Z,33.60
2019-03-23T02:19:38.799Z,33.80
2019-03-23T02:22:09.660Z,34.50
2019-03-23T02:24:39.591Z,33.73
2019-03-23T02:27:10.423Z,33.53
2019-03-23T02:29:41.271Z,32.07
2019-03-23T02:32:12.143Z,34.90
2019-03-23T02:34:42.997Z,35.27
2019-03-23T02:37:26.765Z,35.97
2019-03-23T02:39:45.624Z,35.67
2019-03-23T02:42:16.492Z,35.60
2019-03-23T02:44:46.431Z,34.47
2019-03-23T02:47:17.239Z,37.33
2019-03-23T02:49:47.199Z,35.53
2019-03-23T02:52:17.944Z,33.37
2019-03-23T02:54:47.894Z,36.60
2019-03-23T02:57:17.682Z,37.30
2019-03-23T02:59:48.479Z,36.93
2019-03-23T03:02:20.270Z,36.03
2019-03-23T03:04:51.211Z,39.27
2019-03-23T03:07:22.075Z,38.47
2019-03-23T03:09:52.953Z,37.17
2019-03-23T03:12:23.809Z,36.60
2019-03-23T03:14:54.655Z,36.63
2019-03-23T03:17:24.587Z,39.37
2019-03-23T03:19:55.417Z,38.50
2019-03-23T03:22:26.296Z,40.63
2019-03-23T03:24:57.160Z,42.10
2019-03-23T03:27:28.024Z,42.33
2019-03-23T03:29:58.925Z,40.33
2019-03-23T03:32:29.778Z,41.77
2019-03-23T03:35:00.783Z,40.83
2019-03-23T03:37:30.851Z,41.60
2019-03-23T03:40:01.662Z,44.27
2019-03-23T03:42:32.526Z,42.98
2019-03-23T03:45:03.386Z,46.23
2019-03-23T03:47:34.271Z,45.98
2019-03-23T03:50:05.268Z,46.47
2019-03-23T03:52:36.142Z,46.23
2019-03-23T03:55:07.249Z,47.33
2019-03-23T03:57:37.222Z,46.60
2019-03-23T04:00:08.144Z,47.70
2019-03-23T04:02:39.040Z,46.33
2019-03-23T04:05:09.909Z,47.60
2019-03-23T04:07:40.789Z,47.03
2019-03-23T04:10:11.062Z,47.73
2019-03-23T04:12:41.823Z,46.47
2019-03-23T04:15:12.719Z,47.07
2019-03-23T04:17:43.558Z,45.00
2019-03-23T04:20:14.678Z,46.17
2019-03-23T04:22:45.523Z,45.20
2019-03-23T04:25:16.412Z,46.97
2019-03-23T04:27:47.262Z,46.30
2019-03-23T04:30:18.184Z,47.50
2019-03-23T04:32:49.025Z,45.67
2019-03-23T04:35:20.172Z,44.53
2019-03-23T04:37:51.146Z,41.77
2019-03-23T04:40:21.101Z,41.57
2019-03-23T04:42:50.943Z,42.00
2019-03-23T04:45:21.726Z,39.87
2019-03-23T04:47:51.675Z,42.50
2019-03-23T04:50:21.555Z,41.00
2019-03-23T04:52:51.404Z,39.40
2019-03-23T04:55:21.264Z,38.97
2019-03-23T04:57:52.034Z,39.23
2019-03-23T05:00:22.927Z,37.93
2019-03-23T05:02:52.875Z,37.47
2019-03-23T05:05:23.635Z,37.20
2019-03-23T05:07:54.527Z,35.87
2019-03-23T05:10:25.406Z,34.87
2019-03-23T05:12:56.459Z,34.33
2019-03-23T05:15:27.314Z,33.00
2019-03-23T05:17:58.176Z,32.13
2019-03-23T05:20:30.823Z,33.03
2019-03-23T05:23:01.824Z,31.40
2019-03-23T05:25:32.667Z,30.67
2019-03-23T05:28:02.724Z,29.37
2019-03-23T05:30:33.526Z,29.03
2019-03-23T05:33:03.759Z,28.90
2019-03-23T05:35:33.607Z,27.70
2019-03-23T05:38:04.709Z,27.73
2019-03-23T05:40:35.515Z,27.67
2019-03-23T05:43:05.458Z,27.30
2019-03-23T05:45:36.307Z,26.97
2019-03-23T05:48:07.195Z,26.13
2019-03-23T05:50:38.052Z,27.20
2019-03-23T05:53:08.960Z,26.40
2019-03-23T05:55:39.840Z,24.03
2019-03-23T05:58:10.720Z,25.77
2019-03-23T06:00:41.596Z,27.87
2019-03-23T06:03:11.552Z,26.43
2019-03-23T06:05:42.335Z,26.13
2019-03-23T06:08:13.220Z,27.17
2019-03-23T06:10:44.071Z,26.43
2019-03-23T06:13:14.928Z,24.03
2019-03-23T06:15:45.844Z,22.97
2019-03-23T06:18:16.671Z,24.53
2019-03-23T06:20:47.534Z,24.57
2019-03-23T06:23:18.406Z,25.40
2019-03-23T06:25:49.273Z,24.73
2019-03-23T06:28:20.146Z,20.67
2019-03-23T06:30:51.021Z,20.50
2019-03-23T06:33:20.981Z,21.23
2019-03-23T06:35:51.756Z,21.00
2019-03-23T06:38:21.710Z,20.43
2019-03-23T06:40:51.552Z,21.03
2019-03-23T06:43:21.418Z,26.47
2019-03-23T06:45:52.199Z,27.23
2019-03-23T06:48:23.075Z,26.07
2019-03-23T06:50:53.952Z,29.43
2019-03-23T06:53:24.818Z,30.87
2019-03-23T06:55:55.708Z,29.70
2019-03-23T06:58:26.563Z,31.80
2019-03-23T07:00:57.439Z,31.63
2019-03-23T07:03:28.306Z,32.77
2019-03-23T07:05:59.207Z,31.63
2019-03-23T07:08:32.102Z,34.20
2019-03-23T07:11:02.519Z,33.97
2019-03-23T07:13:33.378Z,34.10
2019-03-23T07:16:03.319Z,31.00
2019-03-23T07:18:33.182Z,30.87
2019-03-23T07:21:03.885Z,30.67
2019-03-23T07:23:34.758Z,28.00
2019-03-23T07:26:04.847Z,27.40
2019-03-23T07:28:34.704Z,27.10
2019-03-23T07:31:05.479Z,27.10
2019-03-23T07:33:36.335Z,27.63
2019-03-23T07:36:06.261Z,26.87
2019-03-23T07:38:36.130Z,26.67
2019-03-23T07:41:06.951Z,26.47
2019-03-23T07:43:37.832Z,25.50
2019-03-23T07:46:08.683Z,26.33
2019-03-23T07:48:39.541Z,25.80
2019-03-23T07:51:10.430Z,27.60
2019-03-23T07:53:41.327Z,27.50
2019-03-23T07:56:12.238Z,27.37
2019-03-23T07:58:43.123Z,27.83
2019-03-23T08:01:13.988Z,25.87
2019-03-23T08:03:44.891Z,27.00
2019-03-23T08:06:15.759Z,25.67
2019-03-23T08:08:46.715Z,25.07
2019-03-23T08:11:17.573Z,26.23
2019-03-23T08:13:47.516Z,25.97
2019-03-23T08:16:17.379Z,25.93
2019-03-23T08:18:48.186Z,26.33
2019-03-23T08:21:19.053Z,27.13
2019-03-23T08:23:49.951Z,25.80
2019-03-23T08:26:20.887Z,26.83
2019-03-23T08:28:50.859Z,25.97
2019-03-23T08:31:22.994Z,25.10
2019-03-23T08:33:53.942Z,24.10
2019-03-23T08:36:23.915Z,25.57
2019-03-23T08:38:54.730Z,27.67
2019-03-23T08:41:24.768Z,24.90
2019-03-23T08:43:54.650Z,26.73
2019-03-23T08:46:24.627Z,25.13
2019-03-23T08:48:54.503Z,26.03
2019-03-23T08:51:24.346Z,24.27
2019-03-23T08:53:55.122Z,26.03
2019-03-23T08:56:24.986Z,25.60
2019-03-23T08:58:55.821Z,25.93
2019-03-23T09:01:25.843Z,25.50
2019-03-23T09:03:55.743Z,25.37
2019-03-23T09:06:25.619Z,24.47
2019-03-23T09:08:56.423Z,27.07
2019-03-23T09:11:26.359Z,25.37
2019-03-23T09:13:57.082Z,24.83
2019-03-23T09:16:27.039Z,25.17
2019-03-23T09:18:57.843Z,24.70
2019-03-23T09:21:27.859Z,26.83
2019-03-23T09:23:58.630Z,26.80
2019-03-23T09:26:28.611Z,26.75
2019-03-23T09:28:59.416Z,26.23
2019-03-23T09:31:29.350Z,25.60
2019-03-23T09:33:59.200Z,32.83
2019-03-23T09:36:29.044Z,27.93
2019-03-23T09:38:58.923Z,27.50
2019-03-23T09:41:28.780Z,25.57
2019-03-23T09:43:59.543Z,25.67
2019-03-23T09:46:29.624Z,34.98
2019-03-23T09:49:00.482Z,39.27
2019-03-23T09:51:30.427Z,23.83
2019-03-23T09:54:01.267Z,24.33
2019-03-23T09:56:32.142Z,24.57
2019-03-23T09:59:03.011Z,23.77
2019-03-23T10:01:33.907Z,23.27
2019-03-23T10:04:03.871Z,24.97
2019-03-23T10:06:34.803Z,23.37
2019-03-23T10:09:05.423Z,22.57
2019-03-23T10:11:36.195Z,22.53
2019-03-23T10:14:06.237Z,22.07
2019-03-23T10:16:36.136Z,20.97
2019-03-23T10:19:06.039Z,19.83
2019-03-23T10:21:36.832Z,18.83
2019-03-23T10:24:06.820Z,19.53
2019-03-23T10:26:36.675Z,21.67
2019-03-23T10:29:06.545Z,18.17
2019-03-23T10:31:37.348Z,17.67
2019-03-23T10:34:07.303Z,17.03
2019-03-23T10:36:38.101Z,17.40
2019-03-23T10:39:08.067Z,18.00
2019-03-23T10:41:38.870Z,17.23
2019-03-23T10:44:08.827Z,18.30
2019-03-23T10:46:39.626Z,17.30
2019-03-23T10:49:09.538Z,16.80
2019-03-23T10:51:40.331Z,17.43
2019-03-23T10:54:10.293Z,25.27
2019-03-23T10:56:40.246Z,15.37
2019-03-23T10:59:10.052Z,17.63
2019-03-23T11:01:40.838Z,15.70
2019-03-23T11:04:11.762Z,26.53
2019-03-23T11:06:41.634Z,15.50
2019-03-23T11:09:12.403Z,14.10
2019-03-23T11:11:43.295Z,13.57
2019-03-23T11:14:14.187Z,13.60
2019-03-23T11:16:45.086Z,13.20
2019-03-23T11:19:16.029Z,10.97
2019-03-23T11:21:46.108Z,8.07
2019-03-23T11:24:16.892Z,7.17
2019-03-23T11:26:46.842Z,11.73
2019-03-23T11:29:17.765Z,15.60
2019-03-23T11:31:47.725Z,17.47
2019-03-23T11:34:18.530Z,18.70
2019-03-23T11:36:49.403Z,17.33
2019-03-23T11:39:21.101Z,18.60
2019-03-23T11:41:51.983Z,18.50
2019-03-23T11:44:22.903Z,17.37
2019-03-23T11:46:53.807Z,18.20
2019-03-23T11:49:24.730Z,17.87
2019-03-23T11:51:54.677Z,17.30
2019-03-23T11:54:25.486Z,17.40
2019-03-23T11:56:56.376Z,16.10
2019-03-23T11:59:27.290Z,16.40
2019-03-23T12:01:57.211Z,14.80
2019-03-23T12:04:28.008Z,18.47
2019-03-23T12:06:58.882Z,15.43
2019-03-23T12:09:29.786Z,15.13
2019-03-23T12:12:00.496Z,16.97
2019-03-23T12:14:31.279Z,15.50
2019-03-23T12:17:01.221Z,16.90
2019-03-23T12:19:31.957Z,16.30
2019-03-23T12:22:03.191Z,17.00
2019-03-23T12:24:34.072Z,16.07
2019-03-23T12:27:05.263Z,16.00
2019-03-23T12:29:36.171Z,15.50
2019-03-23T12:32:06.110Z,32.10
2019-03-23T12:34:36.933Z,14.13
2019-03-23T12:37:07.178Z,13.30
2019-03-23T12:39:37.973Z,13.77
2019-03-23T12:42:07.952Z,13.05
2019-03-23T12:44:38.743Z,13.57
2019-03-23T12:47:08.721Z,13.20
2019-03-23T12:49:39.504Z,12.70
2019-03-23T12:52:10.359Z,14.27
2019-03-23T12:54:41.245Z,13.27
2019-03-23T12:57:12.120Z,13.50
2019-03-23T12:59:43.013Z,13.33
2019-03-23T13:02:12.945Z,13.33
2019-03-23T13:04:43.747Z,13.00
2019-03-23T13:07:14.619Z,12.70
2019-03-23T13:09:44.582Z,10.67
2019-03-23T13:12:15.372Z,13.57
2019-03-23T13:14:46.259Z,8.93
2019-03-23T13:17:17.131Z,8.60
2019-03-23T13:19:47.079Z,8.30
2019-03-23T13:22:16.929Z,7.27
2019-03-23T13:24:47.723Z,7.57
2019-03-23T13:27:17.675Z,7.83
2019-03-23T13:29:47.651Z,7.47
2019-03-23T13:32:17.519Z,8.57
2019-03-23T13:34:48.295Z,16.20
2019-03-23T13:37:19.154Z,7.93
2019-03-23T13:39:49.022Z,8.20
2019-03-23T13:42:20.266Z,7.30
2019-03-23T13:44:51.228Z,8.87
2019-03-23T13:47:22.118Z,8.23
2019-03-23T13:49:52.077Z,8.20
2019-03-23T13:52:21.918Z,9.37
2019-03-23T13:54:51.688Z,10.30
2019-03-23T13:57:22.468Z,9.87
2019-03-23T13:59:52.450Z,9.23
2019-03-23T14:02:23.217Z,10.30
2019-03-23T14:04:54.146Z,10.13
2019-03-23T14:07:25.005Z,10.20
2019-03-23T14:09:55.923Z,9.60
2019-03-23T14:12:26.851Z,9.63
2019-03-23T14:14:57.783Z,9.80
2019-03-23T14:17:27.769Z,10.00
2019-03-23T14:19:57.658Z,9.30
2019-03-23T14:22:27.563Z,7.80
2019-03-23T14:24:58.351Z,8.43
2019-03-23T14:27:28.291Z,7.17
2019-03-23T14:29:58.094Z,7.83
2019-03-23T14:32:27.983Z,8.57
2019-03-23T14:34:57.831Z,6.70
2019-03-23T14:37:27.713Z,8.83
2019-03-23T14:39:57.606Z,8.83
2019-03-23T14:42:27.491Z,9.53
2019-03-23T14:44:58.273Z,10.87
2019-03-23T14:47:28.223Z,10.53
2019-03-23T14:49:58.119Z,11.07
2019-03-23T14:52:28.008Z,10.60
2019-03-23T14:54:58.791Z,10.17
2019-03-23T14:57:28.750Z,10.20
2019-03-23T14:59:58.635Z,9.97
2019-03-23T15:02:28.528Z,10.00
2019-03-23T15:04:58.423Z,9.23
2019-03-23T15:07:28.379Z,9.37
2019-03-23T15:09:58.499Z,8.63
2019-03-23T15:12:28.345Z,8.37
2019-03-23T15:14:58.191Z,8.27
2019-03-23T15:17:28.036Z,8.77
2019-03-23T15:19:57.937Z,8.43
2019-03-23T15:22:27.854Z,7.67
2019-03-23T15:24:58.575Z,7.87
2019-03-23T15:27:29.474Z,8.37
2019-03-23T15:30:00.351Z,7.90
2019-03-23T15:32:31.247Z,7.60
2019-03-23T15:35:01.201Z,5.80
2019-03-23T15:37:31.066Z,5.13
2019-03-23T15:40:00.843Z,5.20
2019-03-23T15:42:31.631Z,5.20
2019-03-23T15:45:02.513Z,4.03
2019-03-23T15:47:33.421Z,3.92
2019-03-23T15:50:03.538Z,3.80
2019-03-23T15:52:34.331Z,3.23
2019-03-23T15:55:05.464Z,4.20
2019-03-23T15:57:36.763Z,4.70
2019-03-23T16:00:09.392Z,4.33
2019-03-23T16:02:40.304Z,4.33
2019-03-23T16:05:12.271Z,3.40
2019-03-23T16:07:43.207Z,3.87
2019-03-23T16:10:14.203Z,4.77
2019-03-23T16:12:44.151Z,3.93
2019-03-23T16:15:14.142Z,4.60
2019-03-23T16:17:44.874Z,4.70
2019-03-23T16:20:15.076Z,3.57
2019-03-23T16:22:45.861Z,4.30
2019-03-23T16:25:15.776Z,3.40
2019-03-23T16:27:45.615Z,3.47
2019-03-23T16:30:17.839Z,3.53
2019-03-23T16:32:47.679Z,3.17
2019-03-23T16:35:18.519Z,2.40
2019-03-23T16:37:49.507Z,3.20
2019-03-23T16:40:20.387Z,2.50
2019-03-23T16:42:50.327Z,2.40
2019-03-23T16:45:21.860Z,2.63
2019-03-23T16:47:51.815Z,2.30
2019-03-23T16:50:21.711Z,1.87
2019-03-23T16:52:52.503Z,2.10
2019-03-23T16:55:24.059Z,3.13
2019-03-23T16:57:55.756Z,3.17
2019-03-23T17:00:38.282Z,2.70
2019-03-23T17:03:08.996Z,2.80
2019-03-23T17:05:39.277Z,2.50
2019-03-23T17:08:11.436Z,2.43
2019-03-23T17:10:44.159Z,2.77
2019-03-23T17:13:17.694Z,2.90
2019-03-23T17:15:48.347Z,3.27
2019-03-23T17:18:19.671Z,2.90
2019-03-23T17:20:50.439Z,3.20
2019-03-23T17:23:22.574Z,2.70
2019-03-23T17:25:54.464Z,2.87
2019-03-23T17:28:26.747Z,4.07
2019-03-23T17:31:01.883Z,3.00
2019-03-23T17:33:36.997Z,2.58
2019-03-23T17:36:10.191Z,2.70
2019-03-23T17:38:41.448Z,2.47
2019-03-23T17:41:12.735Z,2.73
2019-03-23T17:43:43.020Z,2.37
2019-03-23T17:46:13.114Z,4.67
2019-03-23T17:48:43.052Z,2.77
2019-03-23T17:51:13.846Z,2.53
2019-03-23T17:53:43.847Z,3.73
2019-03-23T17:56:13.718Z,2.67
2019-03-23T17:58:43.630Z,3.07
2019-03-23T18:01:19.713Z,2.70
2019-03-23T18:03:48.257Z,3.20
2019-03-23T18:06:19.023Z,2.77
2019-03-23T18:08:48.971Z,2.87
2019-03-23T18:11:19.778Z,3.03
2019-03-23T18:13:49.767Z,3.97
2019-03-23T18:16:20.335Z,3.27
2019-03-23T18:18:51.148Z,3.23
2019-03-23T18:21:22.467Z,2.87
2019-03-23T18:23:52.427Z,3.37
2019-03-23T18:26:22.295Z,3.83
2019-03-23T18:28:52.104Z,3.67
2019-03-23T18:31:22.876Z,3.13
2019-03-23T18:33:53.784Z,3.53
2019-03-23T18:36:23.719Z,3.60
2019-03-23T18:38:54.516Z,3.83
2019-03-23T18:41:24.504Z,3.83
2019-03-23T18:43:55.317Z,4.57
2019-03-23T18:46:26.187Z,3.70
2019-03-23T18:48:57.148Z,3.50
2019-03-23T18:51:28.024Z,3.13
2019-03-23T18:53:58.014Z,2.90
2019-03-23T18:56:28.803Z,2.83
2019-03-23T18:58:58.735Z,3.40
2019-03-23T19:01:29.526Z,2.93
2019-03-23T19:03:59.465Z,3.27
2019-03-23T19:06:29.336Z,3.67
2019-03-23T19:09:00.108Z,3.30
2019-03-23T19:11:30.992Z,3.13
2019-03-23T19:14:00.959Z,4.17
2019-03-23T19:16:31.775Z,4.20
2019-03-23T19:19:02.791Z,3.97
2019-03-23T19:21:33.687Z,4.43
2019-03-23T19:24:03.756Z,3.87
2019-03-23T19:26:34.590Z,4.30
2019-03-23T19:29:04.855Z,4.97
2019-03-23T19:31:34.871Z,5.13
2019-03-23T19:34:04.868Z,4.37
2019-03-23T19:36:34.763Z,4.80
2019-03-23T19:39:06.892Z,5.63
2019-03-23T19:41:37.724Z,5.43
2019-03-23T19:44:08.599Z,5.27
2019-03-23T19:46:38.521Z,4.60
2019-03-23T19:49:09.427Z,5.20
2019-03-23T19:51:40.315Z,5.37
2019-03-23T19:54:11.337Z,5.30
2019-03-23T19:56:42.207Z,6.47
2019-03-23T19:59:13.108Z,6.30
2019-03-23T20:01:44.026Z,5.53
2019-03-23T20:04:15.802Z,5.87
2019-03-23T20:06:47.017Z,8.07
2019-03-23T20:09:17.020Z,10.80
2019-03-23T20:11:48.268Z,10.07
2019-03-23T20:14:18.230Z,6.93
2019-03-23T20:16:48.167Z,8.07
2019-03-23T20:19:18.031Z,5.40
2019-03-23T20:21:48.827Z,5.03
2019-03-23T20:24:18.771Z,5.20
2019-03-23T20:26:48.868Z,7.17
2019-03-23T20:29:18.719Z,6.90
2019-03-23T20:31:49.528Z,6.63
2019-03-23T20:34:20.851Z,8.93
2019-03-23T20:36:52.094Z,7.37
2019-03-23T20:39:22.949Z,8.47
2019-03-23T20:41:55.885Z,9.07
2019-03-23T20:44:26.720Z,9.80
2019-03-23T20:46:57.718Z,10.83
2019-03-23T20:49:27.667Z,11.27
2019-03-23T20:51:59.599Z,11.90
2019-03-23T20:54:29.459Z,11.40
2019-03-23T20:57:00.355Z,8.77
2019-03-23T20:59:31.866Z,7.58
2019-03-23T21:02:02.817Z,6.80
2019-03-23T21:04:33.782Z,5.95
2019-03-23T21:07:03.727Z,5.30
2019-03-23T21:09:34.511Z,5.73
2019-03-23T21:12:04.463Z,5.53
2019-03-23T21:14:35.254Z,6.17
2019-03-23T21:17:05.207Z,6.33
2019-03-23T21:19:36.042Z,5.93
2019-03-23T21:22:05.999Z,5.27
2019-03-23T21:24:36.859Z,6.90
2019-03-23T21:27:07.731Z,8.20
2019-03-23T21:29:37.674Z,6.10
2019-03-23T21:32:07.527Z,6.07
2019-03-23T21:34:38.332Z,6.17
2019-03-23T21:37:08.265Z,5.53
2019-03-23T21:39:39.061Z,6.80
2019-03-23T21:42:09.008Z,5.37
2019-03-23T21:44:39.811Z,5.33
2019-03-23T21:47:10.683Z,5.57
2019-03-23T21:49:41.576Z,4.93
2019-03-23T21:52:12.481Z,4.93
2019-03-23T21:54:43.375Z,5.40
2019-03-23T21:57:14.247Z,5.30
2019-03-23T21:59:45.135Z,4.67
2019-03-23T22:02:15.091Z,5.30
2019-03-23T22:04:45.926Z,5.23
2019-03-23T22:07:16.844Z,5.77
2019-03-23T22:09:47.728Z,4.83
2019-03-23T22:12:17.661Z,5.50
2019-03-23T22:14:48.434Z,5.23
2019-03-23T22:17:18.379Z,4.60
2019-03-23T22:19:49.183Z,4.90
2019-03-23T22:22:19.207Z,5.37
2019-03-23T22:24:49.971Z,4.33
2019-03-23T22:27:21.004Z,4.22
2019-03-23T22:29:52.030Z,4.43
2019-03-23T22:32:22.871Z,5.27
2019-03-23T22:34:53.741Z,5.47
2019-03-23T22:37:24.624Z,4.83
2019-03-23T22:39:54.571Z,4.57
2019-03-23T22:42:25.351Z,5.23
2019-03-23T22:44:55.311Z,4.57
2019-03-23T22:47:26.124Z,4.53
2019-03-23T22:49:56.979Z,5.13
2019-03-23T22:52:27.868Z,4.17
2019-03-23T22:54:58.743Z,5.03
2019-03-23T22:57:29.625Z,5.37
2019-03-23T22:59:59.570Z,4.47
2019-03-23T23:02:29.530Z,6.70
2019-03-23T23:05:00.311Z,5.43
2019-03-23T23:07:31.199Z,4.73
2019-03-23T23:10:02.144Z,4.87
2019-03-23T23:12:32.981Z,4.70
2019-03-23T23:15:04.936Z,4.93
2019-03-23T23:17:35.088Z,4.67
2019-03-23T23:20:06.442Z,5.00
2019-03-23T23:22:36.385Z,4.77
2019-03-23T23:25:07.783Z,5.73
2019-03-23T23:27:37.732Z,4.57
2019-03-23T23:30:08.730Z,6.60
2019-03-23T23:32:39.430Z,4.33
2019-03-23T23:35:09.771Z,4.37
2019-03-23T23:37:40.538Z,4.87
2019-03-23T23:40:12.073Z,4.63
2019-03-23T23:42:42.963Z,3.87
2019-03-23T23:45:15.730Z,4.87
2019-03-23T23:47:45.502Z,4.40
2019-03-23T23:50:16.215Z,5.20
2019-03-23T23:52:46.150Z,4.97
2019-03-23T23:55:16.828Z,4.63
2019-03-23T23:57:47.687Z,4.70
